AEA82NJ LEMD-EGKK
Flight info
| Callsign | AEA82NJ |
|---|---|
| Flight time | 1h 33m |
| Altitude | 40000 |
| Route | SIE N865 DELOG DCT DEGEX DCT OZNOH DCT JSY DCT REVTU UP88 VASUX |
| Aircraft | B788/H-SDE1E2E3FGHIJ2J3J4J5M1RWXY/LB1D1 |
Departure
| Time | 2026-05-04 17:35 |
|---|---|
| Airport | Adolfo Suárez Madrid–Barajas Airport (LEMD) |
Arrival
| Time | 2026-05-04 19:09 |
|---|---|
| Airport | London Gatwick Airport (EGKK) |
| Time | Latitude | Longitude | Altitude | Speed | Heading |
|---|---|---|---|---|---|
| 2026-05-04 17:07 | 40.46428 | -3.56850 | 2011 ft | 0 kts | 289° |
| 2026-05-04 17:22 | 40.46426 | -3.56843 | 2011 ft | 2 kts | 289° |
| 2026-05-04 17:23 | 40.46408 | -3.56772 | 2011 ft | 3 kts | 289° |
| 2026-05-04 17:23 | 40.46402 | -3.56747 | 2011 ft | 3 kts | 289° |
| 2026-05-04 17:23 | 40.46389 | -3.56696 | 2011 ft | 3 kts | 289° |
| 2026-05-04 17:24 | 40.46387 | -3.56692 | 2011 ft | 0 kts | 289° |
| 2026-05-04 17:25 | 40.46388 | -3.56692 | 2011 ft | 0 kts | 289° |
| 2026-05-04 17:26 | 40.46388 | -3.56693 | 2011 ft | 0 kts | 289° |
| 2026-05-04 17:26 | 40.46480 | -3.56689 | 2011 ft | 14 kts | 6° |
| 2026-05-04 17:27 | 40.46732 | -3.56672 | 2011 ft | 21 kts | 2° |
| 2026-05-04 17:27 | 40.46980 | -3.56724 | 2011 ft | 18 kts | 330° |
| 2026-05-04 17:28 | 40.47177 | -3.56910 | 2011 ft | 16 kts | 333° |
| 2026-05-04 17:29 | 40.47376 | -3.56790 | 2011 ft | 12 kts | 51° |
| 2026-05-04 17:29 | 40.47653 | -3.57032 | 2011 ft | 17 kts | 321° |
| 2026-05-04 17:30 | 40.47910 | -3.57305 | 2011 ft | 6 kts | 283° |
| 2026-05-04 17:31 | 40.47944 | -3.57449 | 2011 ft | 14 kts | 321° |
| 2026-05-04 17:31 | 40.48324 | -3.57833 | 2011 ft | 24 kts | 323° |
| 2026-05-04 17:32 | 40.48560 | -3.58022 | 2011 ft | 20 kts | 330° |
| 2026-05-04 17:33 | 40.48983 | -3.58058 | 2011 ft | 23 kts | 358° |
| 2026-05-04 17:33 | 40.49132 | -3.58055 | 2011 ft | 17 kts | 359° |
| 2026-05-04 17:34 | 40.49243 | -3.57786 | 2011 ft | 23 kts | 90° |
| 2026-05-04 17:34 | 40.49257 | -3.57607 | 2011 ft | 19 kts | 64° |
| 2026-05-04 17:35 | 40.49452 | -3.57462 | 2011 ft | 19 kts | 360° |
| 2026-05-04 17:35 | 40.50894 | -3.57473 | 2095 ft | 172 kts | 358° |
| 2026-05-04 17:35 | 40.52109 | -3.57452 | 2998 ft | 171 kts | 358° |
| 2026-05-04 17:36 | 40.53248 | -3.57447 | 4210 ft | 157 kts | 353° |
| 2026-05-04 17:36 | 40.54355 | -3.57469 | 5050 ft | 165 kts | 353° |
| 2026-05-04 17:36 | 40.55545 | -3.57488 | 5709 ft | 178 kts | 354° |
| 2026-05-04 17:36 | 40.56832 | -3.57507 | 6301 ft | 192 kts | 354° |
| 2026-05-04 17:37 | 40.58241 | -3.57522 | 6821 ft | 213 kts | 355° |
| 2026-05-04 17:37 | 40.59794 | -3.57318 | 7335 ft | 239 kts | 13° |
| 2026-05-04 17:37 | 40.61396 | -3.56497 | 7948 ft | 255 kts | 19° |
| 2026-05-04 17:37 | 40.63060 | -3.55631 | 8795 ft | 257 kts | 12° |
| 2026-05-04 17:38 | 40.64810 | -3.55475 | 9758 ft | 249 kts | 354° |
| 2026-05-04 17:38 | 40.66533 | -3.55548 | 10706 ft | 247 kts | 354° |
| 2026-05-04 17:38 | 40.68259 | -3.55612 | 11533 ft | 249 kts | 354° |
| 2026-05-04 17:38 | 40.69996 | -3.55664 | 12301 ft | 251 kts | 355° |
| 2026-05-04 17:39 | 40.73544 | -3.55753 | 13698 ft | 259 kts | 354° |
| 2026-05-04 17:39 | 40.75380 | -3.55919 | 14170 ft | 272 kts | 350° |
| 2026-05-04 17:39 | 40.77319 | -3.56151 | 14608 ft | 286 kts | 350° |
| 2026-05-04 17:40 | 40.79334 | -3.56389 | 15180 ft | 295 kts | 350° |
| 2026-05-04 17:40 | 40.81377 | -3.56623 | 15840 ft | 301 kts | 350° |
| 2026-05-04 17:40 | 40.83476 | -3.56861 | 16535 ft | 305 kts | 350° |
| 2026-05-04 17:40 | 40.85600 | -3.57101 | 17241 ft | 308 kts | 350° |
| 2026-05-04 17:41 | 40.87745 | -3.57344 | 17950 ft | 311 kts | 350° |
| 2026-05-04 17:41 | 40.89906 | -3.57590 | 18647 ft | 313 kts | 350° |
| 2026-05-04 17:41 | 40.92109 | -3.57842 | 19088 ft | 325 kts | 350° |
| 2026-05-04 17:41 | 40.94431 | -3.58112 | 19327 ft | 343 kts | 350° |
| 2026-05-04 17:42 | 40.96878 | -3.58394 | 19543 ft | 361 kts | 351° |
| 2026-05-04 17:42 | 40.99444 | -3.58688 | 19736 ft | 379 kts | 351° |
| 2026-05-04 17:42 | 41.02132 | -3.58995 | 19959 ft | 395 kts | 351° |
| 2026-05-04 17:42 | 41.04915 | -3.59311 | 20315 ft | 407 kts | 351° |
| 2026-05-04 17:43 | 41.07768 | -3.59632 | 20797 ft | 414 kts | 351° |
| 2026-05-04 17:43 | 41.10662 | -3.59960 | 21324 ft | 420 kts | 351° |
| 2026-05-04 17:43 | 41.13588 | -3.60291 | 21886 ft | 424 kts | 351° |
| 2026-05-04 17:43 | 41.16548 | -3.60547 | 22470 ft | 429 kts | 354° |
| 2026-05-04 17:44 | 41.19543 | -3.60640 | 23039 ft | 433 kts | 355° |
| 2026-05-04 17:44 | 41.22565 | -3.60695 | 23584 ft | 436 kts | 355° |
| 2026-05-04 17:44 | 41.25616 | -3.60753 | 24112 ft | 439 kts | 355° |
| 2026-05-04 17:44 | 41.28683 | -3.60819 | 24614 ft | 443 kts | 355° |
| 2026-05-04 17:45 | 41.31781 | -3.60892 | 25098 ft | 447 kts | 354° |
| 2026-05-04 17:45 | 41.34901 | -3.60969 | 25578 ft | 450 kts | 354° |
| 2026-05-04 17:45 | 41.38044 | -3.61048 | 26065 ft | 453 kts | 354° |
| 2026-05-04 17:45 | 41.41206 | -3.61129 | 26543 ft | 456 kts | 354° |
| 2026-05-04 17:46 | 41.44390 | -3.61211 | 27002 ft | 459 kts | 354° |
| 2026-05-04 17:46 | 41.47595 | -3.61299 | 27446 ft | 462 kts | 354° |
| 2026-05-04 17:46 | 41.50776 | -3.61365 | 27874 ft | 465 kts | 354° |
| 2026-05-04 17:46 | 41.54022 | -3.61385 | 28287 ft | 468 kts | 355° |
| 2026-05-04 17:47 | 41.57293 | -3.61382 | 28690 ft | 472 kts | 355° |
| 2026-05-04 17:47 | 41.60591 | -3.61374 | 29094 ft | 475 kts | 355° |
| 2026-05-04 17:47 | 41.63901 | -3.61371 | 29502 ft | 477 kts | 355° |
| 2026-05-04 17:47 | 41.67230 | -3.61369 | 29903 ft | 480 kts | 355° |
| 2026-05-04 17:48 | 41.70577 | -3.61367 | 30289 ft | 483 kts | 355° |
| 2026-05-04 17:48 | 41.73947 | -3.61365 | 30646 ft | 486 kts | 355° |
| 2026-05-04 17:48 | 41.77341 | -3.61365 | 30990 ft | 490 kts | 355° |
| 2026-05-04 17:48 | 41.80762 | -3.61365 | 31337 ft | 493 kts | 355° |
| 2026-05-04 17:49 | 41.84258 | -3.61368 | 31689 ft | 497 kts | 355° |
| 2026-05-04 17:49 | 41.87681 | -3.61369 | 32049 ft | 500 kts | 355° |
| 2026-05-04 17:49 | 41.91171 | -3.61367 | 32414 ft | 503 kts | 355° |
| 2026-05-04 17:49 | 41.94682 | -3.61365 | 32815 ft | 505 kts | 355° |
| 2026-05-04 17:50 | 41.98203 | -3.61362 | 33271 ft | 506 kts | 355° |
| 2026-05-04 17:50 | 42.01726 | -3.61398 | 33737 ft | 506 kts | 354° |
| 2026-05-04 17:50 | 42.05244 | -3.61553 | 34198 ft | 506 kts | 353° |
| 2026-05-04 17:50 | 42.08761 | -3.61762 | 34671 ft | 506 kts | 353° |
| 2026-05-04 17:51 | 42.11141 | -3.61917 | 34993 ft | 506 kts | 353° |
| 2026-05-04 17:51 | 42.14666 | -3.62150 | 35471 ft | 506 kts | 353° |
| 2026-05-04 17:51 | 42.18138 | -3.62380 | 35943 ft | 506 kts | 353° |
| 2026-05-04 17:51 | 42.21655 | -3.62609 | 36402 ft | 506 kts | 353° |
| 2026-05-04 17:52 | 42.25172 | -3.62838 | 36856 ft | 506 kts | 353° |
| 2026-05-04 17:52 | 42.28695 | -3.63066 | 37271 ft | 506 kts | 353° |
| 2026-05-04 17:52 | 42.32211 | -3.63294 | 37687 ft | 506 kts | 353° |
| 2026-05-04 17:52 | 42.35713 | -3.63649 | 38093 ft | 504 kts | 349° |
| 2026-05-04 17:53 | 42.39187 | -3.64210 | 38493 ft | 502 kts | 348° |
| 2026-05-04 17:53 | 42.42653 | -3.64861 | 38869 ft | 502 kts | 347° |
| 2026-05-04 17:53 | 42.46106 | -3.65545 | 39238 ft | 501 kts | 347° |
| 2026-05-04 17:53 | 42.49557 | -3.66240 | 39589 ft | 501 kts | 347° |
| 2026-05-04 17:54 | 42.53014 | -3.66936 | 39841 ft | 502 kts | 347° |
| 2026-05-04 17:54 | 42.56463 | -3.67627 | 39966 ft | 501 kts | 348° |
| 2026-05-04 17:54 | 42.63357 | -3.69005 | 39987 ft | 500 kts | 348° |
| 2026-05-04 17:55 | 42.70256 | -3.70335 | 40002 ft | 503 kts | 349° |
| 2026-05-04 17:55 | 42.77296 | -3.71544 | 40008 ft | 516 kts | 349° |
| 2026-05-04 17:56 | 42.84492 | -3.72760 | 39996 ft | 523 kts | 349° |
| 2026-05-04 17:56 | 42.91706 | -3.73987 | 40010 ft | 523 kts | 349° |
| 2026-05-04 17:57 | 42.98924 | -3.75224 | 40018 ft | 523 kts | 349° |
| 2026-05-04 17:57 | 43.06104 | -3.76459 | 40012 ft | 523 kts | 349° |
| 2026-05-04 17:58 | 43.13376 | -3.77712 | 40022 ft | 523 kts | 349° |
| 2026-05-04 17:58 | 43.20549 | -3.78951 | 40023 ft | 523 kts | 349° |
| 2026-05-04 17:59 | 43.27779 | -3.80202 | 40017 ft | 523 kts | 349° |
| 2026-05-04 18:00 | 43.38620 | -3.82084 | 40028 ft | 524 kts | 350° |
| 2026-05-04 18:00 | 43.45842 | -3.83342 | 40018 ft | 523 kts | 350° |
| 2026-05-04 18:01 | 43.53072 | -3.84605 | 40029 ft | 523 kts | 350° |
| 2026-05-04 18:01 | 43.60294 | -3.85868 | 40023 ft | 524 kts | 350° |
| 2026-05-04 18:02 | 43.71086 | -3.87763 | 40026 ft | 523 kts | 350° |
| 2026-05-04 18:02 | 43.78323 | -3.89037 | 40022 ft | 524 kts | 350° |
| 2026-05-04 18:03 | 43.85547 | -3.90312 | 40020 ft | 523 kts | 350° |
| 2026-05-04 18:03 | 43.92770 | -3.91590 | 40031 ft | 524 kts | 350° |
| 2026-05-04 18:04 | 44.00002 | -3.92872 | 40019 ft | 523 kts | 350° |
| 2026-05-04 18:05 | 44.10841 | -3.94801 | 40031 ft | 523 kts | 350° |
| 2026-05-04 18:05 | 44.18072 | -3.96091 | 40020 ft | 524 kts | 350° |
| 2026-05-04 18:06 | 44.28873 | -3.97939 | 40017 ft | 525 kts | 355° |
| 2026-05-04 18:06 | 44.36197 | -3.97442 | 40039 ft | 529 kts | 4° |
| 2026-05-04 18:07 | 44.43499 | -3.96155 | 40018 ft | 528 kts | 6° |
| 2026-05-04 18:07 | 44.50762 | -3.94560 | 40021 ft | 529 kts | 7° |
| 2026-05-04 18:08 | 44.58036 | -3.92883 | 40020 ft | 530 kts | 7° |
| 2026-05-04 18:08 | 44.65305 | -3.91201 | 40011 ft | 529 kts | 7° |
| 2026-05-04 18:09 | 44.79807 | -3.87842 | 40024 ft | 530 kts | 8° |
| 2026-05-04 18:10 | 44.87079 | -3.86152 | 40015 ft | 530 kts | 8° |
| 2026-05-04 18:10 | 44.94354 | -3.84457 | 40027 ft | 530 kts | 8° |
| 2026-05-04 18:11 | 45.01638 | -3.82756 | 40016 ft | 529 kts | 8° |
| 2026-05-04 18:11 | 45.08907 | -3.81054 | 40015 ft | 530 kts | 8° |
| 2026-05-04 18:12 | 45.16184 | -3.79345 | 40009 ft | 529 kts | 8° |
| 2026-05-04 18:12 | 45.23445 | -3.77636 | 40004 ft | 529 kts | 8° |
| 2026-05-04 18:13 | 45.30708 | -3.75922 | 40014 ft | 529 kts | 8° |
| 2026-05-04 18:14 | 45.41602 | -3.73342 | 40000 ft | 528 kts | 8° |
| 2026-05-04 18:14 | 45.48849 | -3.71620 | 40011 ft | 528 kts | 8° |
| 2026-05-04 18:15 | 45.63356 | -3.68161 | 40000 ft | 528 kts | 8° |
| 2026-05-04 18:16 | 45.70603 | -3.66426 | 40004 ft | 528 kts | 8° |
| 2026-05-04 18:16 | 45.77847 | -3.64687 | 39992 ft | 528 kts | 8° |
| 2026-05-04 18:17 | 45.88669 | -3.62084 | 40002 ft | 528 kts | 8° |
| 2026-05-04 18:18 | 45.99536 | -3.59452 | 39989 ft | 528 kts | 8° |
| 2026-05-04 18:18 | 46.06778 | -3.57695 | 39999 ft | 527 kts | 9° |
| 2026-05-04 18:19 | 46.17629 | -3.55054 | 39981 ft | 527 kts | 9° |
| 2026-05-04 18:19 | 46.24869 | -3.53289 | 39968 ft | 527 kts | 9° |
| 2026-05-04 18:20 | 46.32107 | -3.51520 | 39969 ft | 527 kts | 9° |
| 2026-05-04 18:20 | 46.39339 | -3.49743 | 39976 ft | 527 kts | 9° |
| 2026-05-04 18:21 | 46.46580 | -3.47958 | 39964 ft | 527 kts | 9° |
| 2026-05-04 18:21 | 46.53817 | -3.46169 | 39973 ft | 527 kts | 9° |
| 2026-05-04 18:22 | 46.61017 | -3.44386 | 39971 ft | 528 kts | 9° |
| 2026-05-04 18:22 | 46.68250 | -3.42591 | 39957 ft | 527 kts | 9° |
| 2026-05-04 18:23 | 46.75494 | -3.40788 | 39966 ft | 527 kts | 9° |
| 2026-05-04 18:23 | 46.82729 | -3.38982 | 39972 ft | 528 kts | 9° |
| 2026-05-04 18:24 | 46.89970 | -3.37170 | 39960 ft | 527 kts | 9° |
| 2026-05-04 18:24 | 46.97204 | -3.35355 | 39970 ft | 526 kts | 9° |
| 2026-05-04 18:25 | 47.04450 | -3.33536 | 39966 ft | 532 kts | 9° |
| 2026-05-04 18:25 | 47.11711 | -3.31703 | 39962 ft | 532 kts | 9° |
| 2026-05-04 18:26 | 47.19011 | -3.29853 | 39972 ft | 533 kts | 9° |
| 2026-05-04 18:26 | 47.26318 | -3.28002 | 39959 ft | 532 kts | 9° |
| 2026-05-04 18:27 | 47.33615 | -3.26145 | 39963 ft | 532 kts | 9° |
| 2026-05-04 18:27 | 47.40911 | -3.24281 | 39971 ft | 531 kts | 9° |
| 2026-05-04 18:28 | 47.48197 | -3.22415 | 39959 ft | 531 kts | 9° |
| 2026-05-04 18:28 | 47.55441 | -3.20558 | 39968 ft | 531 kts | 9° |
| 2026-05-04 18:29 | 47.62733 | -3.18682 | 39966 ft | 532 kts | 9° |
| 2026-05-04 18:29 | 47.69985 | -3.16532 | 39941 ft | 532 kts | 18° |
| 2026-05-04 18:30 | 47.80160 | -3.10000 | 39961 ft | 532 kts | 27° |
| 2026-05-04 18:31 | 47.86698 | -3.04797 | 39965 ft | 533 kts | 30° |
| 2026-05-04 18:31 | 47.93077 | -2.99311 | 39974 ft | 532 kts | 31° |
| 2026-05-04 18:32 | 47.99433 | -2.93747 | 39969 ft | 528 kts | 31° |
| 2026-05-04 18:32 | 48.05763 | -2.88187 | 39973 ft | 527 kts | 31° |
| 2026-05-04 18:33 | 48.12085 | -2.82618 | 39981 ft | 527 kts | 31° |
| 2026-05-04 18:33 | 48.18404 | -2.77036 | 39971 ft | 528 kts | 31° |
| 2026-05-04 18:34 | 48.24738 | -2.71425 | 39983 ft | 528 kts | 31° |
| 2026-05-04 18:34 | 48.31068 | -2.65800 | 39986 ft | 528 kts | 31° |
| 2026-05-04 18:35 | 48.37388 | -2.60169 | 39978 ft | 528 kts | 31° |
| 2026-05-04 18:35 | 48.43731 | -2.54583 | 39989 ft | 528 kts | 28° |
| 2026-05-04 18:36 | 48.50329 | -2.49896 | 39981 ft | 528 kts | 24° |
| 2026-05-04 18:36 | 48.57115 | -2.45585 | 39975 ft | 528 kts | 22° |
| 2026-05-04 18:37 | 48.63914 | -2.41366 | 39986 ft | 528 kts | 22° |
| 2026-05-04 18:37 | 48.70719 | -2.37131 | 39974 ft | 528 kts | 22° |
| 2026-05-04 18:38 | 48.77510 | -2.32883 | 39977 ft | 528 kts | 22° |
| 2026-05-04 18:38 | 48.84292 | -2.28622 | 39986 ft | 527 kts | 22° |
| 2026-05-04 18:39 | 48.89923 | -2.25067 | 39978 ft | 527 kts | 23° |
| 2026-05-04 18:39 | 48.96699 | -2.20782 | 39987 ft | 527 kts | 23° |
| 2026-05-04 18:40 | 49.03469 | -2.16493 | 39995 ft | 527 kts | 23° |
| 2026-05-04 18:40 | 49.10236 | -2.12195 | 39986 ft | 526 kts | 23° |
| 2026-05-04 18:41 | 49.16985 | -2.07897 | 39998 ft | 526 kts | 23° |
| 2026-05-04 18:41 | 49.23637 | -2.03218 | 39998 ft | 526 kts | 27° |
| 2026-05-04 18:42 | 49.30081 | -1.97911 | 39990 ft | 525 kts | 29° |
| 2026-05-04 18:42 | 49.36467 | -1.92470 | 40004 ft | 525 kts | 30° |
| 2026-05-04 18:43 | 49.42815 | -1.87043 | 40000 ft | 525 kts | 30° |
| 2026-05-04 18:43 | 49.49200 | -1.81582 | 39999 ft | 525 kts | 30° |
| 2026-05-04 18:43 | 49.52391 | -1.78849 | 39815 ft | 522 kts | 30° |
| 2026-05-04 18:44 | 49.55550 | -1.76145 | 39206 ft | 516 kts | 29° |
| 2026-05-04 18:44 | 49.57702 | -1.74437 | 38778 ft | 513 kts | 26° |
| 2026-05-04 18:44 | 49.62005 | -1.71568 | 37931 ft | 506 kts | 22° |
| 2026-05-04 18:44 | 49.65269 | -1.69603 | 37294 ft | 501 kts | 21° |
| 2026-05-04 18:45 | 49.68529 | -1.67734 | 36663 ft | 497 kts | 21° |
| 2026-05-04 18:45 | 49.71762 | -1.65926 | 36040 ft | 492 kts | 20° |
| 2026-05-04 18:45 | 49.74968 | -1.64148 | 35425 ft | 488 kts | 20° |
| 2026-05-04 18:45 | 49.78172 | -1.62375 | 34813 ft | 491 kts | 21° |
| 2026-05-04 18:46 | 49.81414 | -1.60577 | 34196 ft | 498 kts | 21° |
| 2026-05-04 18:46 | 49.84694 | -1.58756 | 33565 ft | 501 kts | 21° |
| 2026-05-04 18:46 | 49.87985 | -1.56925 | 32928 ft | 504 kts | 21° |
| 2026-05-04 18:46 | 49.91282 | -1.55088 | 32289 ft | 501 kts | 21° |
| 2026-05-04 18:47 | 49.94546 | -1.53273 | 31658 ft | 497 kts | 21° |
| 2026-05-04 18:47 | 49.97748 | -1.51485 | 31040 ft | 492 kts | 21° |
| 2026-05-04 18:47 | 50.00975 | -1.49767 | 30423 ft | 488 kts | 20° |
| 2026-05-04 18:47 | 50.04193 | -1.48159 | 29810 ft | 484 kts | 19° |
| 2026-05-04 18:48 | 50.07389 | -1.46596 | 29202 ft | 479 kts | 19° |
| 2026-05-04 18:48 | 50.10560 | -1.45053 | 28600 ft | 476 kts | 19° |
| 2026-05-04 18:48 | 50.13708 | -1.43519 | 28001 ft | 472 kts | 19° |
| 2026-05-04 18:48 | 50.16835 | -1.41990 | 27406 ft | 468 kts | 19° |
| 2026-05-04 18:49 | 50.19932 | -1.40472 | 26818 ft | 465 kts | 19° |
| 2026-05-04 18:49 | 50.23002 | -1.38965 | 26235 ft | 461 kts | 19° |
| 2026-05-04 18:49 | 50.26045 | -1.37468 | 25657 ft | 457 kts | 19° |
| 2026-05-04 18:49 | 50.29067 | -1.35979 | 25084 ft | 454 kts | 19° |
| 2026-05-04 18:50 | 50.32063 | -1.34500 | 24515 ft | 450 kts | 19° |
| 2026-05-04 18:50 | 50.35035 | -1.33031 | 23953 ft | 446 kts | 19° |
| 2026-05-04 18:50 | 50.37984 | -1.31576 | 23397 ft | 443 kts | 19° |
| 2026-05-04 18:50 | 50.40910 | -1.30127 | 22842 ft | 438 kts | 19° |
| 2026-05-04 18:51 | 50.43798 | -1.28693 | 22294 ft | 433 kts | 19° |
| 2026-05-04 18:51 | 50.46633 | -1.27185 | 21727 ft | 428 kts | 24° |
| 2026-05-04 18:51 | 50.49234 | -1.24990 | 21155 ft | 422 kts | 34° |
| 2026-05-04 18:51 | 50.51636 | -1.22479 | 20628 ft | 417 kts | 36° |
| 2026-05-04 18:52 | 50.53988 | -1.19883 | 20085 ft | 409 kts | 37° |
| 2026-05-04 18:52 | 50.56247 | -1.17227 | 19636 ft | 402 kts | 39° |
| 2026-05-04 18:52 | 50.58438 | -1.14519 | 19117 ft | 399 kts | 40° |
| 2026-05-04 18:52 | 50.60587 | -1.11787 | 18602 ft | 394 kts | 40° |
| 2026-05-04 18:53 | 50.62687 | -1.09075 | 18106 ft | 384 kts | 40° |
| 2026-05-04 18:53 | 50.64721 | -1.06418 | 17636 ft | 374 kts | 42° |
| 2026-05-04 18:53 | 50.66528 | -1.03551 | 17142 ft | 363 kts | 49° |
| 2026-05-04 18:53 | 50.68135 | -1.00585 | 16700 ft | 349 kts | 51° |
| 2026-05-04 18:54 | 50.69649 | -0.97687 | 16279 ft | 336 kts | 52° |
| 2026-05-04 18:54 | 50.71104 | -0.94880 | 15871 ft | 324 kts | 52° |
| 2026-05-04 18:54 | 50.72514 | -0.92155 | 15564 ft | 318 kts | 52° |
| 2026-05-04 18:54 | 50.73911 | -0.89452 | 15111 ft | 320 kts | 52° |
| 2026-05-04 18:55 | 50.75316 | -0.86733 | 14603 ft | 318 kts | 52° |
| 2026-05-04 18:55 | 50.78053 | -0.81434 | 13871 ft | 304 kts | 52° |
| 2026-05-04 18:55 | 50.79379 | -0.78865 | 13518 ft | 300 kts | 52° |
| 2026-05-04 18:56 | 50.80532 | -0.76135 | 13083 ft | 299 kts | 68° |
| 2026-05-04 18:56 | 50.81118 | -0.73050 | 12752 ft | 293 kts | 77° |
| 2026-05-04 18:56 | 50.81582 | -0.69979 | 12463 ft | 281 kts | 78° |
| 2026-05-04 18:56 | 50.81986 | -0.67028 | 12200 ft | 269 kts | 79° |
| 2026-05-04 18:57 | 50.82354 | -0.64166 | 11874 ft | 262 kts | 80° |
| 2026-05-04 18:57 | 50.82700 | -0.61362 | 11497 ft | 258 kts | 80° |
| 2026-05-04 18:57 | 50.83036 | -0.58591 | 11093 ft | 255 kts | 80° |
| 2026-05-04 18:57 | 50.83364 | -0.55839 | 10671 ft | 254 kts | 79° |
| 2026-05-04 18:58 | 50.83687 | -0.53096 | 10233 ft | 253 kts | 79° |
| 2026-05-04 18:58 | 50.84007 | -0.50353 | 9802 ft | 253 kts | 79° |
| 2026-05-04 18:58 | 50.84324 | -0.47632 | 9411 ft | 251 kts | 79° |
| 2026-05-04 18:58 | 50.84637 | -0.44929 | 9039 ft | 248 kts | 79° |
| 2026-05-04 18:59 | 50.84944 | -0.42264 | 8669 ft | 246 kts | 79° |
| 2026-05-04 18:59 | 50.85366 | -0.39658 | 8297 ft | 245 kts | 64° |
| 2026-05-04 18:59 | 50.86457 | -0.37644 | 8095 ft | 242 kts | 35° |
| 2026-05-04 18:59 | 50.88018 | -0.36726 | 7839 ft | 242 kts | 6° |
| 2026-05-04 19:00 | 50.89667 | -0.37129 | 7542 ft | 241 kts | 337° |
| 2026-05-04 19:00 | 50.91043 | -0.38617 | 7189 ft | 239 kts | 321° |
| 2026-05-04 19:00 | 50.92308 | -0.40325 | 6809 ft | 239 kts | 320° |
| 2026-05-04 19:00 | 50.93567 | -0.42040 | 6421 ft | 239 kts | 320° |
| 2026-05-04 19:01 | 50.94805 | -0.43741 | 6189 ft | 232 kts | 320° |
| 2026-05-04 19:01 | 50.96002 | -0.45393 | 5901 ft | 224 kts | 320° |
| 2026-05-04 19:01 | 50.97161 | -0.46996 | 5595 ft | 218 kts | 320° |
| 2026-05-04 19:01 | 50.98296 | -0.48567 | 5296 ft | 213 kts | 320° |
| 2026-05-04 19:02 | 50.99376 | -0.50068 | 5152 ft | 198 kts | 320° |
| 2026-05-04 19:02 | 51.00376 | -0.51475 | 4874 ft | 188 kts | 320° |
| 2026-05-04 19:02 | 51.01336 | -0.52828 | 4500 ft | 187 kts | 320° |
| 2026-05-04 19:02 | 51.02356 | -0.54145 | 4077 ft | 187 kts | 330° |
| 2026-05-04 19:03 | 51.03585 | -0.54567 | 3631 ft | 186 kts | 4° |
| 2026-05-04 19:03 | 51.04741 | -0.53758 | 3379 ft | 182 kts | 37° |
| 2026-05-04 19:03 | 51.05688 | -0.52470 | 3205 ft | 178 kts | 40° |
| 2026-05-04 19:03 | 51.06629 | -0.51192 | 3056 ft | 177 kts | 40° |
| 2026-05-04 19:04 | 51.07539 | -0.49951 | 3018 ft | 166 kts | 40° |
| 2026-05-04 19:04 | 51.08413 | -0.48765 | 3013 ft | 164 kts | 40° |
| 2026-05-04 19:04 | 51.09265 | -0.47579 | 3006 ft | 162 kts | 42° |
| 2026-05-04 19:04 | 51.10056 | -0.46296 | 3009 ft | 162 kts | 45° |
| 2026-05-04 19:05 | 51.10815 | -0.44980 | 2999 ft | 162 kts | 50° |
| 2026-05-04 19:05 | 51.11325 | -0.43384 | 2996 ft | 163 kts | 68° |
| 2026-05-04 19:05 | 51.11653 | -0.41651 | 2878 ft | 165 kts | 73° |
| 2026-05-04 19:05 | 51.11935 | -0.39877 | 2647 ft | 166 kts | 75° |
| 2026-05-04 19:06 | 51.12197 | -0.38090 | 2408 ft | 166 kts | 75° |
| 2026-05-04 19:06 | 51.12440 | -0.36324 | 2184 ft | 165 kts | 76° |
| 2026-05-04 19:06 | 51.12670 | -0.34545 | 1961 ft | 161 kts | 77° |
| 2026-05-04 19:06 | 51.12899 | -0.32817 | 1765 ft | 159 kts | 76° |
| 2026-05-04 19:07 | 51.13142 | -0.31109 | 1556 ft | 158 kts | 76° |
| 2026-05-04 19:07 | 51.13386 | -0.29417 | 1334 ft | 153 kts | 76° |
| 2026-05-04 19:07 | 51.13607 | -0.27823 | 1124 ft | 142 kts | 76° |
| 2026-05-04 19:07 | 51.13808 | -0.26332 | 945 ft | 135 kts | 76° |
| 2026-05-04 19:08 | 51.14003 | -0.24885 | 770 ft | 133 kts | 77° |
| 2026-05-04 19:08 | 51.14198 | -0.23455 | 575 ft | 132 kts | 76° |
| 2026-05-04 19:08 | 51.14408 | -0.21995 | 421 ft | 138 kts | 76° |
| 2026-05-04 19:08 | 51.14615 | -0.20470 | 229 ft | 137 kts | 76° |
| 2026-05-04 19:09 | 51.14788 | -0.19243 | 216 ft | 84 kts | 78° |
| 2026-05-04 19:09 | 51.14881 | -0.18549 | 216 ft | 54 kts | 77° |
| 2026-05-04 19:09 | 51.14941 | -0.18095 | 216 ft | 24 kts | 75° |
| 2026-05-04 19:09 | 51.15022 | -0.17883 | 216 ft | 17 kts | 54° |
| 2026-05-04 19:10 | 51.15071 | -0.17789 | 216 ft | 11 kts | 36° |
| 2026-05-04 19:10 | 51.15133 | -0.17762 | 216 ft | 9 kts | 2° |
| 2026-05-04 19:10 | 51.15175 | -0.17768 | 216 ft | 0 kts | 353° |
| 2026-05-04 19:10 | 51.15175 | -0.17769 | 216 ft | 0 kts | 353° |
| 2026-05-04 19:11 | 51.15176 | -0.17769 | 216 ft | 0 kts | 353° |
| 2026-05-04 19:14 | 51.15177 | -0.17769 | 216 ft | 0 kts | 353° |
| 2026-05-04 19:14 | 51.15198 | -0.17773 | 216 ft | 8 kts | 353° |
| 2026-05-04 19:15 | 51.15255 | -0.17741 | 216 ft | 10 kts | 62° |
| 2026-05-04 19:15 | 51.15278 | -0.17611 | 216 ft | 15 kts | 79° |
| 2026-05-04 19:15 | 51.15298 | -0.17453 | 216 ft | 11 kts | 78° |
| 2026-05-04 19:15 | 51.15309 | -0.17395 | 216 ft | 5 kts | 60° |
| 2026-05-04 19:16 | 51.15349 | -0.17338 | 216 ft | 10 kts | 51° |
| 2026-05-04 19:16 | 51.15391 | -0.17249 | 216 ft | 11 kts | 40° |
| 2026-05-04 19:16 | 51.15441 | -0.17185 | 216 ft | 8 kts | 36° |
| 2026-05-04 19:16 | 51.15465 | -0.17158 | 216 ft | 0 kts | 36° |